createdAt,value
2018-03-26T00:00:18.211Z,17.23
2018-03-26T00:02:45.786Z,18.60
2018-03-26T00:05:13.279Z,17.60
2018-03-26T00:07:40.827Z,18.17
2018-03-26T00:10:08.330Z,18.10
2018-03-26T00:12:36.616Z,16.90
2018-03-26T00:15:04.208Z,17.27
2018-03-26T00:17:31.782Z,17.07
2018-03-26T00:20:00.067Z,16.57
2018-03-26T00:22:28.406Z,17.07
2018-03-26T00:24:55.946Z,18.77
2018-03-26T00:27:23.450Z,17.20
2018-03-26T00:29:51.774Z,17.77
2018-03-26T00:32:19.306Z,17.87
2018-03-26T00:34:46.939Z,17.93
2018-03-26T00:37:14.412Z,16.90
2018-03-26T00:39:41.941Z,18.73
2018-03-26T00:42:10.246Z,17.47
2018-03-26T00:44:37.766Z,17.63
2018-03-26T00:47:05.317Z,17.27
2018-03-26T00:49:32.841Z,19.63
2018-03-26T00:52:00.367Z,17.10
2018-03-26T00:54:28.702Z,16.53
2018-03-26T00:56:56.279Z,17.77
2018-03-26T00:59:23.804Z,19.57
2018-03-26T01:01:51.371Z,17.93
2018-03-26T01:04:18.891Z,20.40
2018-03-26T01:06:46.419Z,18.77
2018-03-26T01:09:14.738Z,18.67
2018-03-26T01:11:42.250Z,19.57
2018-03-26T01:14:10.546Z,19.37
2018-03-26T01:16:38.089Z,17.97
2018-03-26T01:19:06.386Z,17.90
2018-03-26T01:21:33.955Z,16.37
2018-03-26T01:24:01.936Z,19.07
2018-03-26T01:26:29.497Z,19.47
2018-03-26T01:28:57.056Z,17.43
2018-03-26T01:31:24.601Z,18.77
2018-03-26T01:33:52.145Z,18.90
2018-03-26T01:36:19.694Z,18.63
2018-03-26T01:38:47.222Z,17.30
2018-03-26T01:41:15.523Z,19.73
2018-03-26T01:43:43.820Z,19.30
2018-03-26T01:46:11.342Z,17.60
2018-03-26T01:48:39.627Z,21.43
2018-03-26T01:51:07.914Z,17.93
2018-03-26T01:53:35.449Z,19.03
2018-03-26T01:56:03.775Z,20.80
2018-03-26T01:58:31.323Z,18.53
2018-03-26T02:00:59.029Z,17.67
2018-03-26T02:03:26.591Z,15.70
2018-03-26T02:05:54.914Z,16.33
2018-03-26T02:08:22.431Z,18.67
2018-03-26T02:10:50.766Z,20.97
2018-03-26T02:13:18.332Z,19.30
2018-03-26T02:15:45.897Z,19.00
2018-03-26T02:18:14.250Z,21.57
2018-03-26T02:20:41.781Z,18.83
2018-03-26T02:23:09.340Z,20.90
2018-03-26T02:25:36.900Z,23.00
2018-03-26T02:28:04.487Z,21.13
2018-03-26T02:30:32.050Z,22.90
2018-03-26T02:32:59.610Z,23.27
2018-03-26T02:35:27.177Z,23.77
2018-03-26T02:37:54.794Z,22.43
2018-03-26T02:40:22.334Z,21.97
2018-03-26T02:42:50.012Z,22.83
2018-03-26T02:45:17.540Z,23.13
2018-03-26T02:47:45.082Z,26.47
2018-03-26T02:50:13.439Z,23.83
2018-03-26T02:52:40.991Z,25.47
2018-03-26T02:55:08.606Z,24.17
2018-03-26T02:57:36.156Z,24.90
2018-03-26T03:00:04.461Z,25.03
2018-03-26T03:02:32.003Z,25.40
2018-03-26T03:04:59.535Z,22.13
2018-03-26T03:07:27.080Z,23.63
2018-03-26T03:09:54.623Z,24.13
2018-03-26T03:12:22.152Z,22.90
2018-03-26T03:14:49.694Z,24.00
2018-03-26T03:17:17.230Z,22.83
2018-03-26T03:19:44.786Z,23.73
2018-03-26T03:22:13.070Z,21.43
2018-03-26T03:24:41.379Z,23.53
2018-03-26T03:27:08.895Z,24.03
2018-03-26T03:29:37.183Z,27.23
2018-03-26T03:32:04.719Z,24.60
2018-03-26T03:34:32.296Z,27.77
2018-03-26T03:36:59.849Z,25.70
2018-03-26T03:39:28.165Z,26.27
2018-03-26T03:41:55.739Z,26.33
2018-03-26T03:44:23.313Z,27.50
2018-03-26T03:46:51.673Z,26.10
2018-03-26T03:49:19.206Z,28.00
2018-03-26T03:51:46.764Z,26.30
2018-03-26T03:54:14.288Z,27.63
2018-03-26T03:56:42.584Z,26.73
2018-03-26T03:59:10.186Z,30.93
2018-03-26T04:01:37.698Z,25.50
2018-03-26T04:04:05.256Z,28.70
2018-03-26T04:06:32.922Z,29.23
2018-03-26T04:09:00.458Z,27.73
2018-03-26T04:11:28.850Z,29.17
2018-03-26T04:13:56.491Z,27.40
2018-03-26T04:16:24.027Z,29.10
2018-03-26T04:18:51.543Z,27.40
2018-03-26T04:21:19.862Z,28.40
2018-03-26T04:23:47.424Z,30.10
2018-03-26T04:26:15.039Z,26.53
2018-03-26T04:28:42.611Z,27.17
2018-03-26T04:31:10.137Z,32.30
2018-03-26T04:33:37.672Z,29.07
2018-03-26T04:36:05.956Z,29.17
2018-03-26T04:38:33.471Z,28.50
2018-03-26T04:41:00.992Z,30.27
2018-03-26T04:43:28.526Z,29.93
2018-03-26T04:45:56.827Z,29.40
2018-03-26T04:48:24.358Z,36.57
2018-03-26T04:50:51.940Z,36.27
2018-03-26T04:53:19.482Z,34.80
2018-03-26T04:55:47.052Z,32.63
2018-03-26T04:58:14.548Z,33.23
2018-03-26T05:00:42.084Z,31.77
2018-03-26T05:03:09.611Z,31.93
2018-03-26T05:05:37.264Z,34.97
2018-03-26T05:08:05.660Z,32.93
2018-03-26T05:10:33.194Z,31.57
2018-03-26T05:13:01.458Z,32.07
2018-03-26T05:15:29.759Z,32.97
2018-03-26T05:17:57.265Z,33.87
2018-03-26T05:20:24.841Z,34.17
2018-03-26T05:22:52.381Z,32.63
2018-03-26T05:25:20.711Z,32.37
2018-03-26T05:27:48.243Z,33.63
2018-03-26T05:30:15.792Z,31.40
2018-03-26T05:32:44.151Z,35.90
2018-03-26T05:35:11.669Z,36.77
2018-03-26T05:37:39.200Z,38.00
2018-03-26T05:40:06.768Z,37.10
2018-03-26T05:42:34.297Z,35.47
2018-03-26T05:45:02.605Z,37.23
2018-03-26T05:47:30.143Z,36.57
2018-03-26T05:49:58.420Z,38.60
2018-03-26T05:52:26.832Z,36.00
2018-03-26T05:54:54.363Z,33.07
2018-03-26T05:57:22.642Z,34.27
2018-03-26T05:59:50.163Z,33.77
2018-03-26T06:02:17.680Z,35.93
2018-03-26T06:04:45.203Z,33.17
2018-03-26T06:07:13.487Z,35.33
2018-03-26T06:09:41.058Z,34.27
2018-03-26T06:12:08.567Z,33.43
2018-03-26T06:14:36.088Z,38.93
2018-03-26T06:17:15.904Z,42.03
2018-03-26T06:19:43.442Z,35.50
2018-03-26T06:22:11.766Z,36.80
2018-03-26T06:24:39.283Z,37.37
2018-03-26T06:27:07.566Z,37.33
2018-03-26T06:29:36.069Z,35.20
2018-03-26T06:32:03.574Z,36.27
2018-03-26T06:34:31.099Z,32.93
2018-03-26T06:40:04.450Z,36.57
2018-03-26T06:42:31.947Z,37.40
2018-03-26T06:44:59.461Z,31.60
2018-03-26T06:47:27.767Z,36.37
2018-03-26T06:49:55.330Z,35.90
2018-03-26T06:52:22.848Z,36.30
2018-03-26T06:54:50.358Z,37.27
2018-03-26T06:57:17.926Z,34.20
2018-03-26T06:59:46.208Z,35.03
2018-03-26T07:02:13.723Z,36.33
2018-03-26T07:04:42.006Z,36.37
2018-03-26T07:07:09.663Z,35.77
2018-03-26T07:09:37.306Z,33.00
2018-03-26T07:12:05.574Z,32.63
2018-03-26T07:14:33.110Z,36.20
2018-03-26T07:17:00.624Z,36.03
2018-03-26T07:19:28.185Z,36.10
2018-03-26T07:21:55.727Z,36.87
2018-03-26T07:24:23.244Z,33.40
2018-03-26T07:26:50.767Z,34.13
2018-03-26T07:29:18.387Z,31.10
2018-03-26T07:31:46.714Z,36.87
2018-03-26T07:34:14.257Z,39.43
2018-03-26T07:36:41.827Z,42.57
2018-03-26T07:39:09.446Z,35.63
2018-03-26T07:41:37.732Z,35.67
2018-03-26T07:44:05.235Z,40.20
2018-03-26T07:46:32.774Z,37.63
2018-03-26T07:49:00.342Z,34.40
2018-03-26T07:51:27.954Z,39.40
2018-03-26T07:53:55.474Z,40.77
2018-03-26T07:56:23.779Z,38.57
2018-03-26T07:58:52.055Z,40.23
2018-03-26T08:01:20.451Z,38.53
2018-03-26T08:03:47.990Z,40.23
2018-03-26T08:06:16.274Z,39.17
2018-03-26T08:08:43.800Z,37.07
2018-03-26T08:11:11.326Z,38.43
2018-03-26T08:13:38.946Z,43.50
2018-03-26T08:16:06.499Z,35.40
2018-03-26T08:18:34.783Z,41.47
2018-03-26T08:21:02.295Z,36.73
2018-03-26T08:23:29.818Z,34.50
2018-03-26T08:25:58.188Z,39.03
2018-03-26T08:28:25.699Z,34.43
2018-03-26T08:30:53.283Z,36.87
2018-03-26T08:33:21.649Z,38.43
2018-03-26T08:35:49.987Z,40.00
2018-03-26T08:38:17.460Z,39.33
2018-03-26T08:40:45.008Z,36.67
2018-03-26T08:43:12.529Z,39.90
2018-03-26T08:45:40.051Z,40.10
2018-03-26T08:48:08.389Z,35.43
2018-03-26T08:50:35.917Z,39.23
2018-03-26T08:53:03.455Z,37.83
2018-03-26T08:55:31.758Z,36.67
2018-03-26T08:57:59.290Z,35.30
2018-03-26T09:00:26.883Z,39.40
2018-03-26T09:02:54.474Z,41.13
2018-03-26T09:05:21.990Z,38.47
2018-03-26T09:07:49.498Z,39.37
2018-03-26T09:10:17.771Z,38.37
2018-03-26T09:12:45.370Z,35.47
2018-03-26T09:15:12.876Z,36.60
2018-03-26T09:17:40.430Z,36.17
2018-03-26T09:20:07.967Z,37.67
2018-03-26T09:22:35.514Z,35.77
2018-03-26T09:25:03.035Z,36.63
2018-03-26T09:27:31.328Z,36.47
2018-03-26T09:29:58.836Z,35.23
2018-03-26T09:32:26.368Z,41.23
2018-03-26T09:34:54.004Z,37.80
2018-03-26T09:37:21.573Z,35.53
2018-03-26T09:39:49.130Z,39.20
2018-03-26T09:42:17.479Z,37.53
2018-03-26T09:44:45.828Z,38.13
2018-03-26T09:47:13.340Z,41.37
2018-03-26T09:49:40.848Z,34.67
2018-03-26T09:52:08.388Z,38.03
2018-03-26T09:54:35.911Z,36.57
2018-03-26T09:57:03.451Z,39.90
2018-03-26T09:59:30.947Z,33.63
2018-03-26T10:01:58.539Z,37.43
2018-03-26T10:04:26.827Z,37.03
2018-03-26T10:06:55.211Z,41.27
2018-03-26T10:09:22.796Z,38.07
2018-03-26T10:11:50.318Z,38.20
2018-03-26T10:14:18.654Z,38.70
2018-03-26T10:16:46.255Z,37.63
2018-03-26T10:19:14.541Z,38.80
2018-03-26T10:21:42.046Z,42.20
2018-03-26T10:24:09.599Z,38.20
2018-03-26T10:26:37.174Z,35.40
2018-03-26T10:29:05.481Z,36.37
2018-03-26T10:31:33.045Z,39.30
2018-03-26T10:34:00.694Z,40.23
2018-03-26T10:36:28.983Z,41.87
2018-03-26T10:38:56.524Z,39.63
2018-03-26T10:41:24.846Z,37.23
2018-03-26T10:43:53.480Z,36.30
2018-03-26T10:46:21.789Z,36.60
2018-03-26T10:48:49.302Z,36.97
2018-03-26T10:51:16.866Z,38.77
2018-03-26T10:53:45.167Z,37.57
2018-03-26T10:56:12.672Z,36.23
2018-03-26T10:58:40.202Z,37.37
2018-03-26T11:01:08.475Z,36.87
2018-03-26T11:03:36.038Z,35.47
2018-03-26T11:06:03.550Z,37.97
2018-03-26T11:08:32.543Z,39.13
2018-03-26T11:11:00.081Z,36.40
2018-03-26T11:13:27.619Z,38.47
2018-03-26T11:15:55.164Z,37.70
2018-03-26T11:18:22.692Z,38.37
2018-03-26T11:20:50.210Z,35.07
2018-03-26T11:23:17.733Z,42.90
2018-03-26T11:25:46.043Z,36.13
2018-03-26T11:28:13.558Z,37.13
2018-03-26T11:30:41.078Z,35.73
2018-03-26T11:33:09.374Z,35.70
2018-03-26T11:35:37.019Z,35.90
2018-03-26T11:38:05.381Z,34.70
2018-03-26T11:40:33.667Z,35.57
2018-03-26T11:43:01.944Z,34.07
2018-03-26T11:45:29.507Z,37.03
2018-03-26T11:47:57.034Z,40.03
2018-03-26T11:50:24.652Z,37.13
2018-03-26T11:52:52.196Z,36.57
2018-03-26T11:55:19.697Z,37.47
2018-03-26T11:57:48.009Z,37.30
2018-03-26T12:00:16.299Z,33.83
2018-03-26T12:02:43.846Z,34.50
2018-03-26T12:05:11.366Z,35.83
2018-03-26T12:07:39.668Z,36.10
2018-03-26T12:10:07.974Z,34.70
2018-03-26T12:12:35.498Z,37.07
2018-03-26T12:15:03.794Z,32.43
2018-03-26T12:17:31.300Z,37.30
2018-03-26T12:20:10.738Z,39.93
2018-03-26T12:22:38.245Z,39.03
2018-03-26T12:25:14.046Z,38.73
2018-03-26T12:27:53.521Z,38.07
2018-03-26T12:30:25.222Z,39.17
2018-03-26T12:32:52.741Z,39.90
2018-03-26T12:35:32.158Z,35.43
2018-03-26T12:38:00.450Z,39.00
2018-03-26T12:40:39.850Z,37.43
2018-03-26T12:43:07.447Z,40.03
2018-03-26T12:45:46.922Z,39.30
2018-03-26T12:48:14.432Z,37.43
2018-03-26T12:50:54.574Z,37.10
2018-03-26T12:53:22.863Z,40.43
2018-03-26T12:55:51.133Z,36.13
2018-03-26T12:58:31.256Z,39.33
2018-03-26T13:01:10.527Z,42.17
2018-03-26T13:03:38.050Z,40.90
2018-03-26T13:06:05.559Z,41.40
2018-03-26T13:08:34.429Z,38.80
2018-03-26T13:11:01.940Z,41.17
2018-03-26T13:13:29.477Z,37.33
2018-03-26T13:15:57.016Z,40.17
2018-03-26T13:18:24.607Z,38.40
2018-03-26T13:20:52.128Z,35.03
2018-03-26T13:23:19.661Z,36.87
2018-03-26T13:25:47.932Z,34.83
2018-03-26T13:28:16.266Z,35.00
2018-03-26T13:30:43.788Z,33.07
2018-03-26T13:33:11.307Z,33.33
2018-03-26T13:35:39.733Z,35.30
2018-03-26T13:38:07.294Z,37.30
2018-03-26T13:40:34.829Z,35.80
2018-03-26T13:43:03.145Z,37.30
2018-03-26T13:45:30.681Z,42.07
2018-03-26T13:47:58.327Z,39.07
2018-03-26T13:50:25.847Z,36.57
2018-03-26T13:52:53.378Z,37.90
2018-03-26T13:55:20.901Z,36.00
2018-03-26T13:57:49.215Z,38.57
2018-03-26T14:00:16.736Z,39.73
2018-03-26T14:02:44.255Z,37.33
2018-03-26T14:05:11.779Z,40.40
2018-03-26T14:07:39.291Z,37.47
2018-03-26T14:10:19.627Z,40.20
2018-03-26T14:12:59.795Z,40.77
2018-03-26T14:18:32.875Z,40.07
2018-03-26T14:21:00.342Z,38.90
2018-03-26T14:23:27.808Z,38.57
2018-03-26T14:25:55.273Z,36.93
2018-03-26T14:28:22.730Z,39.93
2018-03-26T14:30:50.209Z,39.23
2018-03-26T14:33:18.436Z,39.27
2018-03-26T14:35:45.899Z,37.67
2018-03-26T14:38:13.354Z,39.90
2018-03-26T14:40:40.821Z,38.47
2018-03-26T14:43:08.616Z,37.80
2018-03-26T14:45:36.046Z,39.40
2018-03-26T14:48:04.295Z,40.00
2018-03-26T14:50:31.754Z,38.80
2018-03-26T14:52:59.259Z,45.37
2018-03-26T14:55:26.734Z,40.17
2018-03-26T14:57:55.248Z,41.03
2018-03-26T15:00:23.018Z,40.97
2018-03-26T15:02:50.507Z,39.27
2018-03-26T15:05:17.948Z,38.17
2018-03-26T15:07:45.406Z,35.77
2018-03-26T15:10:12.877Z,35.40
2018-03-26T15:12:40.341Z,38.17
2018-03-26T15:15:07.819Z,34.77
2018-03-26T15:17:36.059Z,35.90
2018-03-26T15:20:03.531Z,34.67
2018-03-26T15:22:30.994Z,33.60
2018-03-26T15:24:58.461Z,39.63
2018-03-26T15:27:25.967Z,35.33
2018-03-26T15:29:54.160Z,40.87
2018-03-26T15:32:21.626Z,38.43
2018-03-26T15:34:49.085Z,36.03
2018-03-26T15:37:17.310Z,37.90
2018-03-26T15:39:45.089Z,35.97
2018-03-26T15:42:12.568Z,36.17
2018-03-26T15:44:40.039Z,39.93
2018-03-26T15:47:07.519Z,40.97
2018-03-26T15:49:35.003Z,40.60
2018-03-26T15:52:02.796Z,37.63
2018-03-26T15:54:30.262Z,36.03
2018-03-26T15:56:57.731Z,36.33
2018-03-26T15:59:25.200Z,37.87
2018-03-26T16:01:52.183Z,38.77
2018-03-26T16:04:19.646Z,37.83
2018-03-26T16:06:47.120Z,40.60
2018-03-26T16:09:14.599Z,39.37
2018-03-26T16:11:42.080Z,38.17
2018-03-26T16:14:09.546Z,40.83
2018-03-26T16:16:37.014Z,38.40
2018-03-26T16:19:04.480Z,37.60
2018-03-26T16:21:31.938Z,38.00
2018-03-26T16:23:59.402Z,37.07
2018-03-26T16:26:27.186Z,35.93
2018-03-26T16:28:55.567Z,36.40
2018-03-26T16:31:23.551Z,36.50
2018-03-26T16:33:51.294Z,38.47
2018-03-26T16:36:18.996Z,42.53
2018-03-26T16:38:46.724Z,43.43
2018-03-26T16:41:26.263Z,38.77
2018-03-26T16:43:53.749Z,43.03
2018-03-26T16:46:21.256Z,38.90
2018-03-26T16:48:48.788Z,42.40
2018-03-26T16:51:16.244Z,44.47
2018-03-26T16:53:43.765Z,42.13
2018-03-26T16:56:11.271Z,41.33
2018-03-26T16:58:39.510Z,39.67
2018-03-26T17:01:06.975Z,39.17
2018-03-26T17:03:34.447Z,40.33
2018-03-26T17:06:01.992Z,38.00
2018-03-26T17:08:29.501Z,41.07
2018-03-26T17:10:57.018Z,42.27
2018-03-26T17:13:24.439Z,37.97
2018-03-26T17:15:51.989Z,39.53
2018-03-26T17:18:19.459Z,38.47
2018-03-26T17:20:47.224Z,37.37
2018-03-26T17:23:14.686Z,37.53
2018-03-26T17:25:42.151Z,42.67
2018-03-26T17:28:09.620Z,34.57
2018-03-26T17:30:38.162Z,35.93
2018-03-26T17:33:05.954Z,35.73
2018-03-26T17:35:33.486Z,37.60
2018-03-26T17:38:01.260Z,36.07
2018-03-26T17:40:28.725Z,38.80
2018-03-26T17:42:56.188Z,36.20
2018-03-26T17:45:23.790Z,38.03
2018-03-26T17:47:51.299Z,36.87
2018-03-26T17:50:19.055Z,36.13
2018-03-26T17:52:46.539Z,38.97
2018-03-26T17:55:14.007Z,40.03
2018-03-26T17:57:41.532Z,38.17
2018-03-26T18:00:08.991Z,35.07
2018-03-26T18:02:37.069Z,32.23
2018-03-26T18:05:05.394Z,38.87
2018-03-26T18:07:32.852Z,35.30
2018-03-26T18:10:00.341Z,40.23
2018-03-26T18:12:27.801Z,38.47
2018-03-26T18:14:55.266Z,36.80
2018-03-26T18:17:23.032Z,42.17
2018-03-26T18:19:50.490Z,43.33
2018-03-26T18:22:17.954Z,41.77
2018-03-26T18:24:45.406Z,42.47
2018-03-26T18:27:12.870Z,45.93
2018-03-26T18:29:40.356Z,48.60
2018-03-26T18:32:07.814Z,45.37
2018-03-26T18:34:35.291Z,51.87
2018-03-26T18:37:03.232Z,47.13
2018-03-26T18:39:30.707Z,46.07
2018-03-26T18:41:58.186Z,57.07
2018-03-26T18:44:25.653Z,57.77
2018-03-26T18:46:53.114Z,58.20
2018-03-26T18:49:20.576Z,50.17
2018-03-26T18:51:48.040Z,45.90
2018-03-26T18:54:15.499Z,59.73
2018-03-26T18:56:43.319Z,48.17
2018-03-26T18:59:10.751Z,51.13
2018-03-26T19:01:38.213Z,50.07
2018-03-26T19:04:05.683Z,49.17
2018-03-26T19:06:33.148Z,46.37
2018-03-26T19:09:00.864Z,43.70
2018-03-26T19:11:28.336Z,46.30
2018-03-26T19:13:55.806Z,50.13
2018-03-26T19:16:23.272Z,46.47
2018-03-26T19:18:50.743Z,53.33
2018-03-26T19:21:18.206Z,67.27
2018-03-26T19:23:46.430Z,84.07
2018-03-26T19:26:13.902Z,60.67
2018-03-26T19:28:41.372Z,53.47
2018-03-26T19:31:09.211Z,48.63
2018-03-26T19:33:36.673Z,51.80
2018-03-26T19:36:04.151Z,46.17
2018-03-26T19:38:31.918Z,42.80
2018-03-26T19:41:00.166Z,45.87
2018-03-26T19:43:27.635Z,54.70
2018-03-26T19:45:55.093Z,48.27
2018-03-26T19:48:22.549Z,51.63
2018-03-26T19:50:50.031Z,49.73
2018-03-26T19:53:17.482Z,51.80
2018-03-26T19:55:44.949Z,51.43
2018-03-26T19:58:12.438Z,52.57
2018-03-26T20:00:40.661Z,52.70
2018-03-26T20:03:08.598Z,56.03
2018-03-26T20:05:36.062Z,55.57
2018-03-26T20:08:03.528Z,57.03
2018-03-26T20:10:30.988Z,54.07
2018-03-26T20:12:58.454Z,59.93
2018-03-26T20:15:25.926Z,57.20
2018-03-26T20:17:53.401Z,59.17
2018-03-26T20:20:20.870Z,59.87
2018-03-26T20:22:49.115Z,61.40
2018-03-26T20:25:16.589Z,54.30
2018-03-26T20:27:44.300Z,60.80
2018-03-26T20:30:11.770Z,57.17
2018-03-26T20:32:39.242Z,57.57
2018-03-26T20:35:06.707Z,56.93
2018-03-26T20:37:34.183Z,56.70
2018-03-26T20:40:01.904Z,56.53
2018-03-26T20:42:29.362Z,54.53
2018-03-26T20:47:30.827Z,59.97
2018-03-26T20:49:58.300Z,59.90
2018-03-26T20:52:25.842Z,63.80
2018-03-26T20:54:53.308Z,63.03
2018-03-26T20:57:22.078Z,58.80
2018-03-26T20:59:49.547Z,64.90
2018-03-26T21:02:17.099Z,61.07
2018-03-26T21:04:45.341Z,60.03
2018-03-26T21:07:14.064Z,62.63
2018-03-26T21:09:41.538Z,66.07
2018-03-26T21:12:09.277Z,62.10
2018-03-26T21:14:36.772Z,63.10
2018-03-26T21:17:04.304Z,62.60
2018-03-26T21:19:31.852Z,63.40
2018-03-26T21:22:00.225Z,63.43
2018-03-26T21:24:27.676Z,63.40
2018-03-26T21:26:55.456Z,60.30
2018-03-26T21:29:23.223Z,62.97
2018-03-26T21:31:50.682Z,64.43
2018-03-26T21:34:18.448Z,62.63
2018-03-26T21:36:45.949Z,69.53
2018-03-26T21:39:13.418Z,65.53
2018-03-26T21:41:40.887Z,64.27
2018-03-26T21:44:09.117Z,60.60
2018-03-26T21:46:36.850Z,62.00
2018-03-26T21:49:04.718Z,60.23
2018-03-26T21:51:32.202Z,66.07
2018-03-26T21:53:59.716Z,58.60
2018-03-26T21:56:27.183Z,59.97
2018-03-26T21:58:54.643Z,61.70
2018-03-26T22:01:22.099Z,66.47
2018-03-26T22:03:49.558Z,72.03
2018-03-26T22:06:17.326Z,67.93
2018-03-26T22:08:44.779Z,62.67
2018-03-26T22:11:12.245Z,66.23
2018-03-26T22:13:39.709Z,63.97
2018-03-26T22:16:07.175Z,66.80
2018-03-26T22:18:34.638Z,63.60
2018-03-26T22:21:02.108Z,63.17
2018-03-26T22:23:29.580Z,61.30
2018-03-26T22:25:57.290Z,64.03
2018-03-26T22:28:24.767Z,62.40
2018-03-26T22:30:52.244Z,67.63
2018-03-26T22:33:19.714Z,66.97
2018-03-26T22:35:47.430Z,63.40
2018-03-26T22:38:14.889Z,60.37
2018-03-26T22:40:42.357Z,65.23
2018-03-26T22:43:09.819Z,64.13
2018-03-26T22:45:37.287Z,61.47
2018-03-26T22:48:05.018Z,60.57
2018-03-26T22:50:32.483Z,63.77
2018-03-26T22:53:00.247Z,61.23
2018-03-26T22:55:27.701Z,60.47
2018-03-26T22:57:55.183Z,58.70
2018-03-26T23:00:23.410Z,64.70
2018-03-26T23:02:50.883Z,58.57
2018-03-26T23:05:18.367Z,58.10
2018-03-26T23:07:45.818Z,58.00
2018-03-26T23:10:13.284Z,59.80
2018-03-26T23:12:40.734Z,57.80
2018-03-26T23:15:08.483Z,64.70
2018-03-26T23:17:35.938Z,59.23
2018-03-26T23:20:03.402Z,63.03
2018-03-26T23:22:42.626Z,63.77
2018-03-26T23:25:10.096Z,61.53
2018-03-26T23:27:37.852Z,64.97
2018-03-26T23:30:05.312Z,60.40
2018-03-26T23:32:32.773Z,58.10
2018-03-26T23:35:00.247Z,66.43
2018-03-26T23:37:27.713Z,62.53
2018-03-26T23:39:55.444Z,62.87
2018-03-26T23:42:22.899Z,62.07
2018-03-26T23:44:50.365Z,63.93
2018-03-26T23:47:17.835Z,63.63
2018-03-26T23:49:45.291Z,68.63
2018-03-26T23:52:13.518Z,65.93
2018-03-26T23:54:41.738Z,65.60
2018-03-26T23:57:09.207Z,66.07
2018-03-26T23:59:37.661Z,63.90
